WHISKEYTOWN DAM (USBR) (WHI)

Elevation: 1210' · SACRAMENTO R basin · Operator: US Bureau of Reclamation

Provisional data, subject to change.
Query executed Friday at 23:52:20   clock

Select a sensor type for a plot of data.
Note: Reservoir Flows are daily averages.

Earlier

Date RES ELE    STORAGE    RES CHG    OUTFLOW    INFLOW    EVAP    RIV REL    PPT INC    RAIN    SPILL    DIS PWR   
 FEET   AF   AF   CFS   CFS   CFS   CFS   INCHES   INCHES   CFS   CFS  
06/04/2015 1208.79 237228 -63 853 836 15 180 0.07 50.75 0 673
06/05/2015 1208.63 236719 -509 854 614 17 180 0.02 50.77 0 674
06/06/2015 1208.61 236656 -63 773 766 25 180 0.00 50.77 0 593
06/07/2015 1208.68 236878 222 548 710 50 180 0.00 50.77 0 368
06/08/2015 1208.65 236783 -95 871 849 26 180 0.00 50.77 0 691
06/09/2015 1208.56 236497 -286 1269 1151 26 180 0.00 50.77 0 1089
06/10/2015 1208.66 236814 317 855 1030 15 180 0.16 50.93 0 675
06/11/2015 1208.74 237069 255 855 1011 27 180 0.00 50.93 0 675
06/12/2015 1208.81 237291 222 935 1074 27 180 0.00 50.93 0 755
06/13/2015 1208.85 237418 127 997 1102 41 180 0.00 50.93 0 817
06/14/2015 1209.03 237991 573 876 1206 41 180 0.00 50.93 0 696
06/15/2015 1209.32 238919 928 657 1154 29 223 0.00 50.93 0 434
06/16/2015 1209.18 238471 -448 977 781 30 300 0.00 50.93 0 677
06/17/2015 1209.16 238407 -64 1187 1178 23 357 0.00 50.93 0 830
06/18/2015 1208.79 237228 -1179 1417 848 25 361 0.00 50.93 0 1056
06/19/2015 1208.69 236910 -318 1307 1173 26 290 0.00 50.93 0 1017
06/20/2015 1208.80 237259 349 1321 1526 29 238 0.00 50.93 0 1083
06/21/2015 1208.90 237577 318 1019 1200 21 176 0.00 50.93 0 843
06/22/2015 1208.99 237863 286 1243 1415 28 176 0.00 50.93 0 1067
06/23/2015 1209.02 237959 96 1105 1182 29 176 0.00 50.93 0 929
06/24/2015 1209.10 238215 256 1099 1256 28 176 0.00 50.93 0 923
06/25/2015 1209.14 238343 128 1112 1205 28 175 0.00 50.93 0 937
06/26/2015 1209.30 238855 512 1244 1530 28 175 0.00 50.93 0 1069
06/27/2015 1209.32 238919 64 1267 1327 28 175 0.00 50.93 0 1092
06/28/2015 1209.42 239239 320 1089 1267 17 175 0.00 50.93 0 914
06/29/2015 1209.23 238631 -608 1397 1116 26 175 0.00 50.93 0 1222
06/30/2015 1209.19 238503 -128 1715 1680 30 175 0.00 50.93 0 1540
07/01/2015 1208.84 237387 -1116 1437 908 34 176 0.00 50.93 0 1261
07/02/2015 1208.86 237450 63 1718 1775 25 176 0.00 50.93 0 1542
07/03/2015 -- -- -- -- -- -- -- -- -- -- --

Later | Latest

Warning! This data is preliminary and subject to revision.

Show WHI Map | Plot WHI Data | 1 Month WHI Data | Real-Time WHI Data | WHI Info